sensor_id;sensor_type;location;lat;lon;timestamp;temperature;humidity
20376;DHT22;10347;51.828;6.466;2022-09-01T00:01:15;19.60;94.70
20376;DHT22;10347;51.828;6.466;2022-09-01T00:03:49;19.60;95.20
20376;DHT22;10347;51.828;6.466;2022-09-01T00:06:18;19.60;95.00
20376;DHT22;10347;51.828;6.466;2022-09-01T00:08:54;19.60;95.00
20376;DHT22;10347;51.828;6.466;2022-09-01T00:11:21;19.60;95.30
20376;DHT22;10347;51.828;6.466;2022-09-01T00:13:47;19.60;95.30
20376;DHT22;10347;51.828;6.466;2022-09-01T00:16:14;19.50;95.50
20376;DHT22;10347;51.828;6.466;2022-09-01T00:18:42;19.50;95.70
20376;DHT22;10347;51.828;6.466;2022-09-01T00:21:11;19.40;95.80
20376;DHT22;10347;51.828;6.466;2022-09-01T00:23:37;19.40;96.60
20376;DHT22;10347;51.828;6.466;2022-09-01T00:26:03;19.40;96.10
20376;DHT22;10347;51.828;6.466;2022-09-01T00:28:31;19.30;96.10
20376;DHT22;10347;51.828;6.466;2022-09-01T00:30:56;19.30;96.50
20376;DHT22;10347;51.828;6.466;2022-09-01T00:33:22;19.20;96.50
20376;DHT22;10347;51.828;6.466;2022-09-01T00:35:48;19.20;96.60
20376;DHT22;10347;51.828;6.466;2022-09-01T00:38:14;19.20;96.80
20376;DHT22;10347;51.828;6.466;2022-09-01T00:40:39;19.10;96.90
20376;DHT22;10347;51.828;6.466;2022-09-01T00:43:20;19.10;97.00
20376;DHT22;10347;51.828;6.466;2022-09-01T00:45:46;19.10;97.70
20376;DHT22;10347;51.828;6.466;2022-09-01T00:48:11;19.10;97.70
20376;DHT22;10347;51.828;6.466;2022-09-01T00:50:39;19.10;97.40
20376;DHT22;10347;51.828;6.466;2022-09-01T00:53:06;19.10;97.50
20376;DHT22;10347;51.828;6.466;2022-09-01T00:55:34;19.10;97.50
20376;DHT22;10347;51.828;6.466;2022-09-01T00:58:03;19.10;97.60
20376;DHT22;10347;51.828;6.466;2022-09-01T01:00:32;19.10;97.70
20376;DHT22;10347;51.828;6.466;2022-09-01T01:02:58;19.10;97.80
20376;DHT22;10347;51.828;6.466;2022-09-01T01:05:32;19.00;97.90
20376;DHT22;10347;51.828;6.466;2022-09-01T01:07:59;19.00;98.20
20376;DHT22;10347;51.828;6.466;2022-09-01T01:10:29;18.90;98.20
20376;DHT22;10347;51.828;6.466;2022-09-01T01:12:56;18.90;98.40
20376;DHT22;10347;51.828;6.466;2022-09-01T01:15:27;18.80;98.40
20376;DHT22;10347;51.828;6.466;2022-09-01T01:17:53;18.80;98.50
20376;DHT22;10347;51.828;6.466;2022-09-01T01:20:20;18.80;98.60
20376;DHT22;10347;51.828;6.466;2022-09-01T01:23:09;18.80;98.60
20376;DHT22;10347;51.828;6.466;2022-09-01T01:28:15;18.80;98.80
20376;DHT22;10347;51.828;6.466;2022-09-01T01:30:47;18.80;99.00
20376;DHT22;10347;51.828;6.466;2022-09-01T01:33:30;18.80;98.80
20376;DHT22;10347;51.828;6.466;2022-09-01T01:35:56;18.80;98.80
20376;DHT22;10347;51.828;6.466;2022-09-01T01:38:23;18.80;98.80
20376;DHT22;10347;51.828;6.466;2022-09-01T01:40:49;18.80;98.80
20376;DHT22;10347;51.828;6.466;2022-09-01T01:43:16;18.70;99.20
20376;DHT22;10347;51.828;6.466;2022-09-01T01:45:45;18.70;98.90
20376;DHT22;10347;51.828;6.466;2022-09-01T01:48:13;18.60;98.90
20376;DHT22;10347;51.828;6.466;2022-09-01T01:50:40;18.60;99.00
20376;DHT22;10347;51.828;6.466;2022-09-01T01:53:07;18.60;98.90
20376;DHT22;10347;51.828;6.466;2022-09-01T01:55:33;18.60;98.90
20376;DHT22;10347;51.828;6.466;2022-09-01T01:57:59;18.60;98.90
20376;DHT22;10347;51.828;6.466;2022-09-01T02:00:29;18.60;98.90
20376;DHT22;10347;51.828;6.466;2022-09-01T02:02:58;18.60;98.80
20376;DHT22;10347;51.828;6.466;2022-09-01T02:05:28;18.50;98.70
20376;DHT22;10347;51.828;6.466;2022-09-01T02:08:00;18.60;98.60
20376;DHT22;10347;51.828;6.466;2022-09-01T02:10:28;18.60;98.50
20376;DHT22;10347;51.828;6.466;2022-09-01T02:12:56;18.50;98.40
20376;DHT22;10347;51.828;6.466;2022-09-01T02:15:29;18.60;98.40
20376;DHT22;10347;51.828;6.466;2022-09-01T02:17:56;18.50;98.30
20376;DHT22;10347;51.828;6.466;2022-09-01T02:20:25;18.50;98.20
20376;DHT22;10347;51.828;6.466;2022-09-01T02:22:54;18.50;98.20
20376;DHT22;10347;51.828;6.466;2022-09-01T02:25:21;18.40;98.10
20376;DHT22;10347;51.828;6.466;2022-09-01T02:27:48;18.50;98.10
20376;DHT22;10347;51.828;6.466;2022-09-01T02:30:17;18.50;98.10
20376;DHT22;10347;51.828;6.466;2022-09-01T02:32:43;18.50;98.00
20376;DHT22;10347;51.828;6.466;2022-09-01T02:35:08;18.40;97.90
20376;DHT22;10347;51.828;6.466;2022-09-01T02:37:37;18.40;97.90
20376;DHT22;10347;51.828;6.466;2022-09-01T02:40:05;18.40;97.90
20376;DHT22;10347;51.828;6.466;2022-09-01T02:42:31;18.50;97.90
20376;DHT22;10347;51.828;6.466;2022-09-01T02:44:56;18.50;97.90
20376;DHT22;10347;51.828;6.466;2022-09-01T02:47:23;18.50;97.80
20376;DHT22;10347;51.828;6.466;2022-09-01T02:49:52;18.50;97.70
20376;DHT22;10347;51.828;6.466;2022-09-01T02:52:18;18.50;97.60
20376;DHT22;10347;51.828;6.466;2022-09-01T02:54:47;18.50;97.60
20376;DHT22;10347;51.828;6.466;2022-09-01T02:57:14;18.40;97.60
20376;DHT22;10347;51.828;6.466;2022-09-01T02:59:41;18.50;97.60
20376;DHT22;10347;51.828;6.466;2022-09-01T03:02:11;18.40;97.50
20376;DHT22;10347;51.828;6.466;2022-09-01T03:04:37;18.50;97.50
20376;DHT22;10347;51.828;6.466;2022-09-01T03:07:04;18.40;97.40
20376;DHT22;10347;51.828;6.466;2022-09-01T03:09:30;18.40;97.40
20376;DHT22;10347;51.828;6.466;2022-09-01T03:11:57;18.40;97.40
20376;DHT22;10347;51.828;6.466;2022-09-01T03:14:23;18.40;97.50
20376;DHT22;10347;51.828;6.466;2022-09-01T03:16:49;18.40;97.40
20376;DHT22;10347;51.828;6.466;2022-09-01T03:19:15;18.40;97.40
20376;DHT22;10347;51.828;6.466;2022-09-01T03:21:43;18.30;97.40
20376;DHT22;10347;51.828;6.466;2022-09-01T03:24:12;18.30;97.30
20376;DHT22;10347;51.828;6.466;2022-09-01T03:26:40;18.40;97.40
20376;DHT22;10347;51.828;6.466;2022-09-01T03:29:06;18.40;97.40
20376;DHT22;10347;51.828;6.466;2022-09-01T03:31:33;18.40;97.40
20376;DHT22;10347;51.828;6.466;2022-09-01T03:34:00;18.40;97.30
20376;DHT22;10347;51.828;6.466;2022-09-01T03:36:28;18.30;97.30
20376;DHT22;10347;51.828;6.466;2022-09-01T03:38:55;18.30;97.40
20376;DHT22;10347;51.828;6.466;2022-09-01T03:41:26;18.30;97.40
20376;DHT22;10347;51.828;6.466;2022-09-01T03:43:56;18.30;97.40
20376;DHT22;10347;51.828;6.466;2022-09-01T03:46:26;18.30;97.40
20376;DHT22;10347;51.828;6.466;2022-09-01T03:48:57;18.30;97.50
20376;DHT22;10347;51.828;6.466;2022-09-01T03:51:27;18.30;97.40
20376;DHT22;10347;51.828;6.466;2022-09-01T03:53:56;18.30;97.40
20376;DHT22;10347;51.828;6.466;2022-09-01T03:56:23;18.30;97.40
20376;DHT22;10347;51.828;6.466;2022-09-01T03:58:50;18.30;97.40
20376;DHT22;10347;51.828;6.466;2022-09-01T04:01:17;18.20;97.40
20376;DHT22;10347;51.828;6.466;2022-09-01T04:03:44;18.30;97.40
20376;DHT22;10347;51.828;6.466;2022-09-01T04:06:14;18.30;97.40
20376;DHT22;10347;51.828;6.466;2022-09-01T04:08:40;18.20;97.40
20376;DHT22;10347;51.828;6.466;2022-09-01T04:11:14;18.20;97.40
20376;DHT22;10347;51.828;6.466;2022-09-01T04:13:42;18.20;97.50
20376;DHT22;10347;51.828;6.466;2022-09-01T04:16:27;18.20;97.50
20376;DHT22;10347;51.828;6.466;2022-09-01T04:19:13;18.20;97.50
20376;DHT22;10347;51.828;6.466;2022-09-01T04:21:55;18.10;97.60
20376;DHT22;10347;51.828;6.466;2022-09-01T04:24:22;18.10;97.60
20376;DHT22;10347;51.828;6.466;2022-09-01T04:26:50;18.10;97.60
20376;DHT22;10347;51.828;6.466;2022-09-01T04:29:17;18.10;97.60
20376;DHT22;10347;51.828;6.466;2022-09-01T04:31:43;18.10;97.60
20376;DHT22;10347;51.828;6.466;2022-09-01T04:34:09;18.10;97.60
20376;DHT22;10347;51.828;6.466;2022-09-01T04:36:40;18.00;97.60
20376;DHT22;10347;51.828;6.466;2022-09-01T04:39:07;18.10;97.80
20376;DHT22;10347;51.828;6.466;2022-09-01T04:41:40;18.00;97.70
20376;DHT22;10347;51.828;6.466;2022-09-01T04:44:07;18.00;97.70
20376;DHT22;10347;51.828;6.466;2022-09-01T04:46:36;18.00;97.70
20376;DHT22;10347;51.828;6.466;2022-09-01T04:49:04;18.00;97.70
20376;DHT22;10347;51.828;6.466;2022-09-01T04:51:40;18.00;97.80
20376;DHT22;10347;51.828;6.466;2022-09-01T04:54:05;18.00;97.80
20376;DHT22;10347;51.828;6.466;2022-09-01T04:56:37;18.00;97.80
20376;DHT22;10347;51.828;6.466;2022-09-01T04:59:03;17.90;97.90
20376;DHT22;10347;51.828;6.466;2022-09-01T05:01:32;17.90;97.80
20376;DHT22;10347;51.828;6.466;2022-09-01T05:04:20;17.90;97.90
20376;DHT22;10347;51.828;6.466;2022-09-01T05:06:57;17.90;97.90
20376;DHT22;10347;51.828;6.466;2022-09-01T05:09:30;17.80;98.00
20376;DHT22;10347;51.828;6.466;2022-09-01T05:11:57;17.80;98.00
20376;DHT22;10347;51.828;6.466;2022-09-01T05:14:24;17.80;98.00
20376;DHT22;10347;51.828;6.466;2022-09-01T05:16:57;17.80;98.10
20376;DHT22;10347;51.828;6.466;2022-09-01T05:19:23;17.80;98.20
20376;DHT22;10347;51.828;6.466;2022-09-01T05:21:53;17.80;98.20
20376;DHT22;10347;51.828;6.466;2022-09-01T05:24:22;17.80;98.30
20376;DHT22;10347;51.828;6.466;2022-09-01T05:26:54;17.80;98.30
20376;DHT22;10347;51.828;6.466;2022-09-01T05:29:20;17.80;98.40
20376;DHT22;10347;51.828;6.466;2022-09-01T05:31:47;17.80;98.40
20376;DHT22;10347;51.828;6.466;2022-09-01T05:34:13;17.80;98.40
20376;DHT22;10347;51.828;6.466;2022-09-01T05:36:43;17.70;98.50
20376;DHT22;10347;51.828;6.466;2022-09-01T05:39:10;17.70;98.60
20376;DHT22;10347;51.828;6.466;2022-09-01T05:41:37;17.70;98.60
20376;DHT22;10347;51.828;6.466;2022-09-01T05:44:04;17.70;98.60
20376;DHT22;10347;51.828;6.466;2022-09-01T05:46:33;17.70;98.70
20376;DHT22;10347;51.828;6.466;2022-09-01T05:49:00;17.70;98.80
20376;DHT22;10347;51.828;6.466;2022-09-01T05:51:28;17.70;98.80
20376;DHT22;10347;51.828;6.466;2022-09-01T05:53:55;17.70;98.80
20376;DHT22;10347;51.828;6.466;2022-09-01T05:56:24;17.70;98.80
20376;DHT22;10347;51.828;6.466;2022-09-01T05:58:51;17.70;98.80
20376;DHT22;10347;51.828;6.466;2022-09-01T06:01:18;17.70;98.80
20376;DHT22;10347;51.828;6.466;2022-09-01T06:03:50;17.80;98.80
20376;DHT22;10347;51.828;6.466;2022-09-01T06:06:20;17.80;99.10
20376;DHT22;10347;51.828;6.466;2022-09-01T06:08:48;17.80;98.80
20376;DHT22;10347;51.828;6.466;2022-09-01T06:11:15;17.80;98.90
20376;DHT22;10347;51.828;6.466;2022-09-01T06:13:42;17.80;98.90
20376;DHT22;10347;51.828;6.466;2022-09-01T06:16:09;17.80;98.90
20376;DHT22;10347;51.828;6.466;2022-09-01T06:18:37;17.80;99.00
20376;DHT22;10347;51.828;6.466;2022-09-01T06:21:04;17.80;99.00
20376;DHT22;10347;51.828;6.466;2022-09-01T06:23:33;17.80;99.10
20376;DHT22;10347;51.828;6.466;2022-09-01T06:26:00;17.90;99.20
20376;DHT22;10347;51.828;6.466;2022-09-01T06:28:26;17.90;99.30
20376;DHT22;10347;51.828;6.466;2022-09-01T06:30:54;17.90;99.30
20376;DHT22;10347;51.828;6.466;2022-09-01T06:33:22;17.90;99.50
20376;DHT22;10347;51.828;6.466;2022-09-01T06:35:49;18.00;99.50
20376;DHT22;10347;51.828;6.466;2022-09-01T06:38:17;18.00;99.60
20376;DHT22;10347;51.828;6.466;2022-09-01T06:40:44;18.00;99.80
20376;DHT22;10347;51.828;6.466;2022-09-01T06:43:10;18.00;99.70
20376;DHT22;10347;51.828;6.466;2022-09-01T06:45:42;18.10;99.70
20376;DHT22;10347;51.828;6.466;2022-09-01T06:48:09;18.10;99.90
20376;DHT22;10347;51.828;6.466;2022-09-01T06:50:37;18.10;99.80
20376;DHT22;10347;51.828;6.466;2022-09-01T06:53:04;18.10;99.70
20376;DHT22;10347;51.828;6.466;2022-09-01T06:55:39;18.20;99.90
20376;DHT22;10347;51.828;6.466;2022-09-01T06:58:06;18.20;99.90
20376;DHT22;10347;51.828;6.466;2022-09-01T07:00:37;18.20;99.90
20376;DHT22;10347;51.828;6.466;2022-09-01T07:03:07;18.30;99.90
20376;DHT22;10347;51.828;6.466;2022-09-01T07:05:37;18.40;99.90
20376;DHT22;10347;51.828;6.466;2022-09-01T07:08:05;18.40;99.90
20376;DHT22;10347;51.828;6.466;2022-09-01T07:10:42;18.50;99.90
20376;DHT22;10347;51.828;6.466;2022-09-01T07:13:13;18.50;99.90
20376;DHT22;10347;51.828;6.466;2022-09-01T07:15:48;18.60;99.90
20376;DHT22;10347;51.828;6.466;2022-09-01T07:18:15;18.60;99.90
20376;DHT22;10347;51.828;6.466;2022-09-01T07:20:42;18.70;99.90
20376;DHT22;10347;51.828;6.466;2022-09-01T07:23:08;18.70;99.90
20376;DHT22;10347;51.828;6.466;2022-09-01T07:25:40;18.80;99.90
20376;DHT22;10347;51.828;6.466;2022-09-01T07:28:07;18.90;99.90
20376;DHT22;10347;51.828;6.466;2022-09-01T07:30:33;19.00;99.90
20376;DHT22;10347;51.828;6.466;2022-09-01T07:33:04;19.00;99.90
20376;DHT22;10347;51.828;6.466;2022-09-01T07:35:37;19.10;99.80
20376;DHT22;10347;51.828;6.466;2022-09-01T07:38:03;19.20;99.30
20376;DHT22;10347;51.828;6.466;2022-09-01T07:40:33;19.30;98.70
20376;DHT22;10347;51.828;6.466;2022-09-01T07:43:04;19.40;98.90
20376;DHT22;10347;51.828;6.466;2022-09-01T07:45:36;19.40;98.70
20376;DHT22;10347;51.828;6.466;2022-09-01T07:48:05;19.50;98.80
20376;DHT22;10347;51.828;6.466;2022-09-01T07:50:33;19.60;98.90
20376;DHT22;10347;51.828;6.466;2022-09-01T07:52:59;19.60;98.90
20376;DHT22;10347;51.828;6.466;2022-09-01T07:55:26;19.70;98.50
20376;DHT22;10347;51.828;6.466;2022-09-01T07:57:53;19.80;97.70
20376;DHT22;10347;51.828;6.466;2022-09-01T08:00:19;19.90;97.70
20376;DHT22;10347;51.828;6.466;2022-09-01T08:02:46;19.90;97.60
20376;DHT22;10347;51.828;6.466;2022-09-01T08:05:16;20.00;97.50
20376;DHT22;10347;51.828;6.466;2022-09-01T08:07:47;20.10;97.20
20376;DHT22;10347;51.828;6.466;2022-09-01T08:10:13;20.10;97.20
20376;DHT22;10347;51.828;6.466;2022-09-01T08:12:39;20.30;96.60
20376;DHT22;10347;51.828;6.466;2022-09-01T08:15:07;20.30;96.20
20376;DHT22;10347;51.828;6.466;2022-09-01T08:17:33;20.40;96.30
20376;DHT22;10347;51.828;6.466;2022-09-01T08:19:59;20.50;96.40
20376;DHT22;10347;51.828;6.466;2022-09-01T08:22:25;20.50;96.60
20376;DHT22;10347;51.828;6.466;2022-09-01T08:24:52;20.60;96.30
20376;DHT22;10347;51.828;6.466;2022-09-01T08:27:18;20.70;95.90
20376;DHT22;10347;51.828;6.466;2022-09-01T08:29:44;20.80;96.00
20376;DHT22;10347;51.828;6.466;2022-09-01T08:32:10;20.80;96.00
20376;DHT22;10347;51.828;6.466;2022-09-01T08:34:36;20.90;95.90
20376;DHT22;10347;51.828;6.466;2022-09-01T08:37:03;21.00;95.40
20376;DHT22;10347;51.828;6.466;2022-09-01T08:39:29;21.10;94.80
20376;DHT22;10347;51.828;6.466;2022-09-01T08:47:22;21.30;94.40
20376;DHT22;10347;51.828;6.466;2022-09-01T08:49:48;21.40;93.70
20376;DHT22;10347;51.828;6.466;2022-09-01T08:52:35;21.50;92.90
20376;DHT22;10347;51.828;6.466;2022-09-01T08:57:43;21.60;92.20
20376;DHT22;10347;51.828;6.466;2022-09-01T09:00:12;21.70;91.60
20376;DHT22;10347;51.828;6.466;2022-09-01T09:16:45;22.10;88.40
20376;DHT22;10347;51.828;6.466;2022-09-01T09:19:32;22.20;89.00
20376;DHT22;10347;51.828;6.466;2022-09-01T09:22:01;22.30;88.90
20376;DHT22;10347;51.828;6.466;2022-09-01T09:24:35;22.30;88.60
20376;DHT22;10347;51.828;6.466;2022-09-01T09:27:34;22.40;88.50
20376;DHT22;10347;51.828;6.466;2022-09-01T09:35:19;22.70;85.80
20376;DHT22;10347;51.828;6.466;2022-09-01T09:37:45;22.80;86.90
20376;DHT22;10347;51.828;6.466;2022-09-01T09:40:14;22.80;86.50
20376;DHT22;10347;51.828;6.466;2022-09-01T09:42:57;22.90;86.80
20376;DHT22;10347;51.828;6.466;2022-09-01T09:45:35;23.00;83.90
20376;DHT22;10347;51.828;6.466;2022-09-01T09:48:25;23.00;83.20
20376;DHT22;10347;51.828;6.466;2022-09-01T09:50:51;23.00;83.00
20376;DHT22;10347;51.828;6.466;2022-09-01T09:53:28;23.10;82.20
20376;DHT22;10347;51.828;6.466;2022-09-01T09:58:25;23.20;79.40
20376;DHT22;10347;51.828;6.466;2022-09-01T10:01:04;23.30;79.80
20376;DHT22;10347;51.828;6.466;2022-09-01T10:03:40;23.30;79.30
20376;DHT22;10347;51.828;6.466;2022-09-01T10:06:10;23.30;79.30
20376;DHT22;10347;51.828;6.466;2022-09-01T10:08:38;23.40;80.40
20376;DHT22;10347;51.828;6.466;2022-09-01T10:11:11;23.50;79.70
20376;DHT22;10347;51.828;6.466;2022-09-01T10:13:38;23.50;79.50
20376;DHT22;10347;51.828;6.466;2022-09-01T10:16:21;23.60;79.00
20376;DHT22;10347;51.828;6.466;2022-09-01T10:18:49;23.60;80.00
20376;DHT22;10347;51.828;6.466;2022-09-01T10:21:22;23.70;79.30
20376;DHT22;10347;51.828;6.466;2022-09-01T10:23:50;23.80;77.70
20376;DHT22;10347;51.828;6.466;2022-09-01T10:26:21;23.80;76.80
20376;DHT22;10347;51.828;6.466;2022-09-01T10:29:01;23.80;76.00
20376;DHT22;10347;51.828;6.466;2022-09-01T10:31:30;23.80;76.80
20376;DHT22;10347;51.828;6.466;2022-09-01T10:33:56;23.80;77.20
20376;DHT22;10347;51.828;6.466;2022-09-01T10:36:23;23.90;76.80
20376;DHT22;10347;51.828;6.466;2022-09-01T10:38:48;23.90;76.80
20376;DHT22;10347;51.828;6.466;2022-09-01T10:44:33;24.00;75.30
20376;DHT22;10347;51.828;6.466;2022-09-01T10:47:24;24.10;76.80
20376;DHT22;10347;51.828;6.466;2022-09-01T10:55:20;24.40;74.80
20376;DHT22;10347;51.828;6.466;2022-09-01T10:58:03;24.40;75.10
20376;DHT22;10347;51.828;6.466;2022-09-01T11:08:45;24.50;74.50
20376;DHT22;10347;51.828;6.466;2022-09-01T11:11:16;24.60;71.90
20376;DHT22;10347;51.828;6.466;2022-09-01T11:13:54;24.50;72.50
20376;DHT22;10347;51.828;6.466;2022-09-01T11:16:37;24.60;72.70
20376;DHT22;10347;51.828;6.466;2022-09-01T11:27:05;24.80;72.50
20376;DHT22;10347;51.828;6.466;2022-09-01T11:29:55;24.80;71.70
20376;DHT22;10347;51.828;6.466;2022-09-01T11:32:26;24.90;68.80
20376;DHT22;10347;51.828;6.466;2022-09-01T11:34:56;24.80;68.30
20376;DHT22;10347;51.828;6.466;2022-09-01T11:37:24;24.80;70.30
20376;DHT22;10347;51.828;6.466;2022-09-01T11:39:54;24.80;71.60
20376;DHT22;10347;51.828;6.466;2022-09-01T11:42:36;24.90;69.70
20376;DHT22;10347;51.828;6.466;2022-09-01T11:45:25;25.00;69.40
20376;DHT22;10347;51.828;6.466;2022-09-01T11:47:59;25.00;68.50
20376;DHT22;10347;51.828;6.466;2022-09-01T11:50:35;25.00;69.00
20376;DHT22;10347;51.828;6.466;2022-09-01T11:53:11;25.00;68.70
20376;DHT22;10347;51.828;6.466;2022-09-01T11:55:42;25.00;68.60
20376;DHT22;10347;51.828;6.466;2022-09-01T11:58:34;25.10;68.40
20376;DHT22;10347;51.828;6.466;2022-09-01T12:01:16;25.10;69.00
20376;DHT22;10347;51.828;6.466;2022-09-01T12:03:43;25.20;68.60
20376;DHT22;10347;51.828;6.466;2022-09-01T12:06:12;25.30;68.70
20376;DHT22;10347;51.828;6.466;2022-09-01T12:08:51;25.30;68.30
20376;DHT22;10347;51.828;6.466;2022-09-01T12:14:04;25.30;67.50
20376;DHT22;10347;51.828;6.466;2022-09-01T12:16:32;25.30;69.50
20376;DHT22;10347;51.828;6.466;2022-09-01T12:18:59;25.40;68.60
20376;DHT22;10347;51.828;6.466;2022-09-01T12:21:32;25.50;69.30
20376;DHT22;10347;51.828;6.466;2022-09-01T12:24:19;25.50;69.40
20376;DHT22;10347;51.828;6.466;2022-09-01T12:26:46;25.60;68.10
20376;DHT22;10347;51.828;6.466;2022-09-01T12:29:13;25.60;68.50
20376;DHT22;10347;51.828;6.466;2022-09-01T12:31:44;25.60;68.90
20376;DHT22;10347;51.828;6.466;2022-09-01T12:34:35;25.60;69.30
20376;DHT22;10347;51.828;6.466;2022-09-01T12:37:18;25.80;68.30
20376;DHT22;10347;51.828;6.466;2022-09-01T12:39:47;25.70;68.30
20376;DHT22;10347;51.828;6.466;2022-09-01T12:44:59;25.80;67.50
20376;DHT22;10347;51.828;6.466;2022-09-01T12:53:11;25.90;66.60
20376;DHT22;10347;51.828;6.466;2022-09-01T12:55:38;25.90;65.90
20376;DHT22;10347;51.828;6.466;2022-09-01T12:58:08;25.90;66.10
20376;DHT22;10347;51.828;6.466;2022-09-01T13:03:22;25.90;65.90
20376;DHT22;10347;51.828;6.466;2022-09-01T13:05:53;25.90;67.90
20376;DHT22;10347;51.828;6.466;2022-09-01T13:08:22;26.00;67.10
20376;DHT22;10347;51.828;6.466;2022-09-01T13:10:55;26.00;67.50
20376;DHT22;10347;51.828;6.466;2022-09-01T13:13:24;26.00;66.90
20376;DHT22;10347;51.828;6.466;2022-09-01T13:15:54;26.10;66.60
20376;DHT22;10347;51.828;6.466;2022-09-01T13:18:21;26.10;66.60
20376;DHT22;10347;51.828;6.466;2022-09-01T13:20:48;26.10;65.70
20376;DHT22;10347;51.828;6.466;2022-09-01T13:23:14;26.20;66.90
20376;DHT22;10347;51.828;6.466;2022-09-01T13:25:41;26.20;66.70
20376;DHT22;10347;51.828;6.466;2022-09-01T13:28:08;26.30;66.20
20376;DHT22;10347;51.828;6.466;2022-09-01T13:30:36;26.30;65.20
20376;DHT22;10347;51.828;6.466;2022-09-01T13:33:02;26.30;65.80
20376;DHT22;10347;51.828;6.466;2022-09-01T13:35:28;26.40;65.50
20376;DHT22;10347;51.828;6.466;2022-09-01T13:37:53;26.40;64.80
20376;DHT22;10347;51.828;6.466;2022-09-01T13:40:20;26.30;64.40
20376;DHT22;10347;51.828;6.466;2022-09-01T13:42:48;26.30;64.40
20376;DHT22;10347;51.828;6.466;2022-09-01T13:45:15;26.30;64.90
20376;DHT22;10347;51.828;6.466;2022-09-01T13:47:44;26.30;64.90
20376;DHT22;10347;51.828;6.466;2022-09-01T13:50:11;26.30;65.30
20376;DHT22;10347;51.828;6.466;2022-09-01T13:52:51;26.30;65.20
20376;DHT22;10347;51.828;6.466;2022-09-01T13:55:20;26.40;65.30
20376;DHT22;10347;51.828;6.466;2022-09-01T13:57:46;26.40;65.00
20376;DHT22;10347;51.828;6.466;2022-09-01T14:00:15;26.40;65.50
20376;DHT22;10347;51.828;6.466;2022-09-01T14:02:47;26.40;65.80
20376;DHT22;10347;51.828;6.466;2022-09-01T14:05:20;26.40;64.30
20376;DHT22;10347;51.828;6.466;2022-09-01T14:07:46;26.50;64.90
20376;DHT22;10347;51.828;6.466;2022-09-01T14:10:14;26.50;64.50
20376;DHT22;10347;51.828;6.466;2022-09-01T14:12:40;26.50;64.70
20376;DHT22;10347;51.828;6.466;2022-09-01T14:15:08;26.40;65.30
20376;DHT22;10347;51.828;6.466;2022-09-01T14:17:35;26.50;65.10
20376;DHT22;10347;51.828;6.466;2022-09-01T14:20:02;26.60;65.30
20376;DHT22;10347;51.828;6.466;2022-09-01T14:22:28;26.60;65.80
20376;DHT22;10347;51.828;6.466;2022-09-01T14:24:54;26.60;64.40
20376;DHT22;10347;51.828;6.466;2022-09-01T14:27:19;26.60;64.70
20376;DHT22;10347;51.828;6.466;2022-09-01T14:29:49;26.70;65.00
20376;DHT22;10347;51.828;6.466;2022-09-01T14:32:15;26.80;64.00
20376;DHT22;10347;51.828;6.466;2022-09-01T14:34:42;26.80;63.60
20376;DHT22;10347;51.828;6.466;2022-09-01T14:37:08;26.80;64.00
20376;DHT22;10347;51.828;6.466;2022-09-01T14:39:33;26.80;64.10
20376;DHT22;10347;51.828;6.466;2022-09-01T14:41:59;26.80;64.00
20376;DHT22;10347;51.828;6.466;2022-09-01T14:44:24;26.90;63.20
20376;DHT22;10347;51.828;6.466;2022-09-01T14:46:50;26.90;62.20
20376;DHT22;10347;51.828;6.466;2022-09-01T14:49:18;26.80;62.80
20376;DHT22;10347;51.828;6.466;2022-09-01T14:51:45;26.90;63.00
20376;DHT22;10347;51.828;6.466;2022-09-01T14:54:11;26.90;62.20
20376;DHT22;10347;51.828;6.466;2022-09-01T14:56:36;26.90;61.50
20376;DHT22;10347;51.828;6.466;2022-09-01T14:59:02;26.80;61.70
20376;DHT22;10347;51.828;6.466;2022-09-01T15:01:27;26.80;61.50
20376;DHT22;10347;51.828;6.466;2022-09-01T15:03:53;26.90;61.60
20376;DHT22;10347;51.828;6.466;2022-09-01T15:06:20;26.90;61.60
20376;DHT22;10347;51.828;6.466;2022-09-01T15:08:46;26.80;61.00
20376;DHT22;10347;51.828;6.466;2022-09-01T15:11:16;26.80;61.80
20376;DHT22;10347;51.828;6.466;2022-09-01T15:13:42;26.80;61.80
20376;DHT22;10347;51.828;6.466;2022-09-01T15:16:21;26.90;61.70
20376;DHT22;10347;51.828;6.466;2022-09-01T15:18:47;26.90;61.60
20376;DHT22;10347;51.828;6.466;2022-09-01T15:21:25;26.90;61.90
20376;DHT22;10347;51.828;6.466;2022-09-01T15:23:52;26.90;60.50
20376;DHT22;10347;51.828;6.466;2022-09-01T15:26:19;26.90;61.50
20376;DHT22;10347;51.828;6.466;2022-09-01T15:28:46;27.00;61.40
20376;DHT22;10347;51.828;6.466;2022-09-01T15:31:14;27.00;62.10
20376;DHT22;10347;51.828;6.466;2022-09-01T15:33:40;27.00;60.90
20376;DHT22;10347;51.828;6.466;2022-09-01T15:36:07;27.00;60.80
20376;DHT22;10347;51.828;6.466;2022-09-01T15:38:33;27.00;61.20
20376;DHT22;10347;51.828;6.466;2022-09-01T15:40:59;27.00;60.60
20376;DHT22;10347;51.828;6.466;2022-09-01T15:43:29;27.10;60.10
20376;DHT22;10347;51.828;6.466;2022-09-01T15:45:56;27.00;59.80
20376;DHT22;10347;51.828;6.466;2022-09-01T15:48:23;27.00;60.00
20376;DHT22;10347;51.828;6.466;2022-09-01T15:50:49;27.00;59.50
20376;DHT22;10347;51.828;6.466;2022-09-01T15:53:15;27.00;59.90
20376;DHT22;10347;51.828;6.466;2022-09-01T15:55:45;27.00;58.90
20376;DHT22;10347;51.828;6.466;2022-09-01T15:58:14;27.00;59.10
20376;DHT22;10347;51.828;6.466;2022-09-01T16:00:41;26.90;58.90
20376;DHT22;10347;51.828;6.466;2022-09-01T16:03:07;26.90;58.60
20376;DHT22;10347;51.828;6.466;2022-09-01T16:05:35;26.90;58.90
20376;DHT22;10347;51.828;6.466;2022-09-01T16:08:03;26.90;59.10
20376;DHT22;10347;51.828;6.466;2022-09-01T16:10:30;26.90;58.80
20376;DHT22;10347;51.828;6.466;2022-09-01T16:12:56;26.90;59.10
20376;DHT22;10347;51.828;6.466;2022-09-01T16:15:23;27.00;58.80
20376;DHT22;10347;51.828;6.466;2022-09-01T16:21:00;26.90;58.30
20376;DHT22;10347;51.828;6.466;2022-09-01T16:23:44;26.90;57.90
20376;DHT22;10347;51.828;6.466;2022-09-01T16:26:10;26.90;57.50
20376;DHT22;10347;51.828;6.466;2022-09-01T16:28:37;26.90;58.20
20376;DHT22;10347;51.828;6.466;2022-09-01T16:31:15;26.80;57.70
20376;DHT22;10347;51.828;6.466;2022-09-01T16:33:48;26.80;57.90
20376;DHT22;10347;51.828;6.466;2022-09-01T16:41:42;26.80;58.80
20376;DHT22;10347;51.828;6.466;2022-09-01T16:44:21;26.80;58.50
20376;DHT22;10347;51.828;6.466;2022-09-01T16:50:07;26.80;57.60
20376;DHT22;10347;51.828;6.466;2022-09-01T16:58:52;26.60;57.60
20376;DHT22;10347;51.828;6.466;2022-09-01T17:06:49;26.50;58.00
20376;DHT22;10347;51.828;6.466;2022-09-01T17:14:56;26.50;58.40
20376;DHT22;10347;51.828;6.466;2022-09-01T17:20:09;26.40;58.20
20376;DHT22;10347;51.828;6.466;2022-09-01T17:22:36;26.40;58.40
20376;DHT22;10347;51.828;6.466;2022-09-01T17:25:06;26.40;58.60
20376;DHT22;10347;51.828;6.466;2022-09-01T17:27:57;26.40;58.70